createdAt,value
2019-05-21T00:01:06.538Z,45.13
2019-05-21T00:03:36.072Z,48.90
2019-05-21T00:06:05.235Z,47.47
2019-05-21T00:08:34.508Z,48.57
2019-05-21T00:11:03.652Z,48.90
2019-05-21T00:13:33.098Z,49.83
2019-05-21T00:16:02.258Z,46.97
2019-05-21T00:18:31.777Z,43.30
2019-05-21T00:21:00.952Z,45.00
2019-05-21T00:23:30.161Z,44.60
2019-05-21T00:25:59.718Z,45.87
2019-05-21T00:28:39.525Z,44.57
2019-05-21T00:31:44.544Z,40.70
2019-05-21T00:34:49.896Z,43.97
2019-05-21T00:37:54.418Z,44.77
2019-05-21T00:40:59.566Z,43.60
2019-05-21T00:43:47.389Z,47.70
2019-05-21T00:46:17.094Z,40.00
2019-05-21T00:48:46.259Z,43.33
2019-05-21T00:51:15.506Z,43.97
2019-05-21T00:53:44.674Z,46.67
2019-05-21T00:56:13.848Z,41.03
2019-05-21T00:58:43.067Z,42.60
2019-05-21T01:01:13.077Z,41.33
2019-05-21T01:03:43.402Z,42.07
2019-05-21T01:06:12.743Z,38.27
2019-05-21T01:08:41.992Z,40.37
2019-05-21T01:11:11.781Z,39.87
2019-05-21T01:13:41.016Z,41.90
2019-05-21T01:16:10.278Z,40.63
2019-05-21T01:18:39.454Z,34.97
2019-05-21T01:21:08.730Z,37.20
2019-05-21T01:23:37.894Z,40.37
2019-05-21T01:26:07.625Z,35.50
2019-05-21T01:28:36.773Z,35.10
2019-05-21T01:31:05.959Z,31.33
2019-05-21T01:33:35.189Z,28.97
2019-05-21T01:36:04.417Z,29.00
2019-05-21T01:38:33.659Z,31.90
2019-05-21T01:41:03.124Z,32.87
2019-05-21T01:43:32.405Z,29.03
2019-05-21T01:46:01.631Z,29.63
2019-05-21T01:48:30.901Z,31.03
2019-05-21T01:51:00.169Z,32.93
2019-05-21T01:53:29.681Z,24.93
2019-05-21T01:55:59.219Z,30.80
2019-05-21T01:58:29.034Z,24.53
2019-05-21T02:00:58.462Z,30.93
2019-05-21T02:03:27.698Z,29.73
2019-05-21T02:05:57.046Z,29.60
2019-05-21T02:08:26.218Z,26.77
2019-05-21T02:10:55.442Z,27.20
2019-05-21T02:13:24.693Z,26.73
2019-05-21T02:15:53.898Z,29.50
2019-05-21T02:18:23.150Z,26.10
2019-05-21T02:20:52.477Z,24.33
2019-05-21T02:23:21.673Z,24.27
2019-05-21T02:25:50.931Z,25.43
2019-05-21T02:28:20.370Z,20.97
2019-05-21T02:30:49.661Z,20.47
2019-05-21T02:33:19.203Z,21.13
2019-05-21T02:35:54.033Z,22.07
2019-05-21T02:38:19.843Z,18.30
2019-05-21T02:40:49.264Z,20.27
2019-05-21T02:43:19.141Z,18.97
2019-05-21T02:45:48.399Z,17.40
2019-05-21T02:48:17.671Z,17.73
2019-05-21T02:50:47.010Z,17.10
2019-05-21T02:53:16.165Z,17.17
2019-05-21T02:55:45.430Z,17.87
2019-05-21T02:58:14.904Z,16.83
2019-05-21T03:00:54.084Z,13.83
2019-05-21T03:03:25.433Z,15.83
2019-05-21T03:06:12.328Z,12.67
2019-05-21T03:08:25.486Z,16.23
2019-05-21T03:10:54.758Z,16.60
2019-05-21T03:13:24.012Z,15.73
2019-05-21T03:15:53.198Z,14.40
2019-05-21T03:18:22.520Z,15.00
2019-05-21T03:20:51.785Z,14.67
2019-05-21T03:23:21.006Z,15.80
2019-05-21T03:25:50.453Z,13.80
2019-05-21T03:28:19.692Z,13.10
2019-05-21T03:30:48.911Z,15.53
2019-05-21T03:33:18.194Z,14.30
2019-05-21T03:35:47.536Z,13.63
2019-05-21T03:38:16.873Z,13.90
2019-05-21T03:40:46.214Z,15.37
2019-05-21T03:43:15.462Z,13.03
2019-05-21T03:45:45.145Z,16.93
2019-05-21T03:48:14.421Z,14.17
2019-05-21T03:50:44.029Z,13.73
2019-05-21T03:53:13.441Z,17.20
2019-05-21T03:55:42.675Z,16.23
2019-05-21T03:58:12.035Z,16.47
2019-05-21T04:00:41.386Z,15.70
2019-05-21T04:03:10.659Z,18.73
2019-05-21T04:05:40.021Z,16.97
2019-05-21T04:08:09.251Z,20.70
2019-05-21T04:10:38.590Z,19.17
2019-05-21T04:13:09.049Z,19.90
2019-05-21T04:15:52.897Z,21.40
2019-05-21T04:18:26.311Z,18.07
2019-05-21T04:20:55.554Z,20.07
2019-05-21T04:23:24.775Z,20.90
2019-05-21T04:25:54.075Z,20.07
2019-05-21T04:28:23.355Z,19.40
2019-05-21T04:30:52.682Z,22.50
2019-05-21T04:33:21.972Z,21.63
2019-05-21T04:35:51.543Z,21.90
2019-05-21T04:38:20.895Z,22.47
2019-05-21T04:40:50.118Z,22.63
2019-05-21T04:43:20.285Z,21.37
2019-05-21T04:45:49.603Z,23.43
2019-05-21T04:48:19.160Z,20.13
2019-05-21T04:50:48.417Z,20.87
2019-05-21T04:53:17.674Z,20.37
2019-05-21T04:55:46.906Z,23.43
2019-05-21T04:58:16.206Z,19.80
2019-05-21T05:00:45.810Z,18.53
2019-05-21T05:03:15.363Z,21.73
2019-05-21T05:05:44.677Z,20.40
2019-05-21T05:08:13.946Z,20.37
2019-05-21T05:10:43.149Z,17.53
2019-05-21T05:13:12.469Z,19.10
2019-05-21T05:15:41.925Z,17.50
2019-05-21T05:18:11.268Z,17.63
2019-05-21T05:20:40.970Z,19.90
2019-05-21T05:23:10.586Z,18.00
2019-05-21T05:25:39.989Z,18.43
2019-05-21T05:28:09.721Z,19.40
2019-05-21T05:30:39.005Z,17.53
2019-05-21T05:33:08.631Z,16.73
2019-05-21T05:35:37.915Z,17.23
2019-05-21T05:38:07.424Z,18.67
2019-05-21T05:40:36.890Z,19.13
2019-05-21T05:43:06.173Z,15.87
2019-05-21T05:45:35.792Z,16.97
2019-05-21T05:48:05.209Z,18.33
2019-05-21T05:50:37.729Z,18.57
2019-05-21T05:53:06.990Z,17.23
2019-05-21T05:55:36.244Z,16.10
2019-05-21T05:58:05.770Z,17.87
2019-05-21T06:00:35.067Z,17.13
2019-05-21T06:03:04.447Z,17.73
2019-05-21T06:05:33.881Z,17.23
2019-05-21T06:08:03.475Z,17.67
2019-05-21T06:10:32.776Z,16.33
2019-05-21T06:13:02.422Z,13.07
2019-05-21T06:15:31.730Z,16.67
2019-05-21T06:18:01.274Z,13.87
2019-05-21T06:20:30.744Z,15.57
2019-05-21T06:23:00.166Z,14.00
2019-05-21T06:25:29.659Z,14.37
2019-05-21T06:27:59.086Z,12.87
2019-05-21T06:30:28.399Z,14.57
2019-05-21T06:32:57.743Z,14.47
2019-05-21T06:35:27.224Z,12.57
2019-05-21T06:37:56.552Z,12.00
2019-05-21T06:40:25.862Z,15.53
2019-05-21T06:42:55.733Z,11.67
2019-05-21T06:45:25.365Z,12.93
2019-05-21T06:47:54.634Z,11.07
2019-05-21T06:50:23.882Z,9.83
2019-05-21T06:52:53.095Z,11.30
2019-05-21T06:55:22.646Z,8.93
2019-05-21T06:57:51.829Z,9.43
2019-05-21T07:00:21.205Z,10.87
2019-05-21T07:02:50.701Z,10.53
2019-05-21T07:05:20.285Z,7.60
2019-05-21T07:07:49.864Z,7.70
2019-05-21T07:10:19.179Z,7.57
2019-05-21T07:12:48.429Z,7.77
2019-05-21T07:15:17.999Z,8.13
2019-05-21T07:17:47.290Z,8.97
2019-05-21T07:20:16.848Z,6.50
2019-05-21T07:22:46.097Z,9.27
2019-05-21T07:25:15.895Z,6.27
2019-05-21T07:27:45.519Z,7.20
2019-05-21T07:30:15.075Z,8.00
2019-05-21T07:32:44.621Z,4.97
2019-05-21T07:35:14.379Z,8.23
2019-05-21T07:37:43.791Z,6.40
2019-05-21T07:40:13.338Z,6.33
2019-05-21T07:42:42.709Z,7.77
2019-05-21T07:45:12.043Z,6.40
2019-05-21T07:47:41.666Z,6.03
2019-05-21T07:50:11.376Z,5.30
2019-05-21T07:52:41.143Z,5.90
2019-05-21T07:55:11.982Z,5.80
2019-05-21T07:57:41.583Z,5.37
2019-05-21T08:00:11.021Z,7.07
2019-05-21T08:02:40.201Z,5.47
2019-05-21T08:05:09.373Z,4.93
2019-05-21T08:07:38.745Z,5.37
2019-05-21T08:10:08.581Z,4.67
2019-05-21T08:12:39.820Z,5.27
2019-05-21T08:15:09.809Z,6.23
2019-05-21T08:17:39.075Z,3.93
2019-05-21T08:20:10.400Z,3.33
2019-05-21T08:22:40.054Z,5.40
2019-05-21T08:25:14.133Z,5.50
2019-05-21T08:27:40.793Z,8.53
2019-05-21T08:30:10.143Z,7.67
2019-05-21T08:32:39.643Z,5.43
2019-05-21T08:35:10.182Z,5.77
2019-05-21T08:37:39.761Z,5.13
2019-05-21T08:40:09.425Z,4.60
2019-05-21T08:42:39.061Z,5.50
2019-05-21T08:45:08.853Z,4.73
2019-05-21T08:47:38.259Z,6.20
2019-05-21T08:50:09.203Z,5.07
2019-05-21T08:52:38.538Z,6.07
2019-05-21T08:55:08.095Z,6.43
2019-05-21T08:57:37.604Z,13.77
2019-05-21T09:00:10.147Z,5.77
2019-05-21T09:02:39.447Z,4.60
2019-05-21T09:05:09.070Z,4.30
2019-05-21T09:07:38.306Z,4.60
2019-05-21T09:10:08.095Z,4.63
2019-05-21T09:12:37.400Z,4.50
2019-05-21T09:15:07.730Z,3.27
2019-05-21T09:17:37.316Z,5.47
2019-05-21T09:20:07.172Z,5.80
2019-05-21T09:22:36.532Z,5.87
2019-05-21T09:25:06.273Z,5.73
2019-05-21T09:27:35.687Z,4.10
2019-05-21T09:30:05.793Z,4.43
2019-05-21T09:32:35.000Z,4.30
2019-05-21T09:35:04.515Z,4.13
2019-05-21T09:37:34.472Z,5.60
2019-05-21T09:40:03.779Z,5.60
2019-05-21T09:42:33.058Z,9.80
2019-05-21T09:45:02.309Z,7.27
2019-05-21T09:47:31.626Z,4.57
2019-05-21T09:50:01.011Z,4.27
2019-05-21T09:52:30.505Z,5.27
2019-05-21T09:54:59.726Z,5.07
2019-05-21T09:57:48.530Z,5.03
2019-05-21T10:00:38.765Z,5.73
2019-05-21T10:03:12.143Z,5.90
2019-05-21T10:05:41.448Z,5.03
2019-05-21T10:08:10.683Z,5.73
2019-05-21T10:10:39.971Z,5.77
2019-05-21T10:13:09.263Z,6.70
2019-05-21T10:15:38.588Z,7.60
2019-05-21T10:18:08.452Z,7.17
2019-05-21T10:20:37.777Z,5.43
2019-05-21T10:23:07.015Z,4.43
2019-05-21T10:25:36.376Z,4.90
2019-05-21T10:28:05.706Z,5.10
2019-05-21T10:30:35.054Z,4.43
2019-05-21T10:33:04.398Z,5.63
2019-05-21T10:35:33.597Z,4.90
2019-05-21T10:38:03.064Z,5.17
2019-05-21T10:40:32.406Z,4.07
2019-05-21T10:43:01.747Z,4.80
2019-05-21T10:45:30.945Z,6.03
2019-05-21T10:48:00.446Z,4.60
2019-05-21T10:50:29.878Z,3.87
2019-05-21T10:52:59.174Z,4.60
2019-05-21T10:55:28.426Z,4.20
2019-05-21T10:57:58.462Z,4.97
2019-05-21T11:00:28.950Z,4.07
2019-05-21T11:03:03.298Z,2.83
2019-05-21T11:05:37.506Z,3.97
2019-05-21T11:08:24.432Z,4.27
2019-05-21T11:10:38.675Z,4.63
2019-05-21T11:13:07.976Z,2.57
2019-05-21T11:15:37.324Z,3.53
2019-05-21T11:18:10.978Z,4.47
2019-05-21T11:20:37.744Z,3.77
2019-05-21T11:23:07.060Z,3.47
2019-05-21T11:25:36.333Z,2.40
2019-05-21T11:28:06.325Z,2.73
2019-05-21T11:30:35.842Z,3.20
2019-05-21T11:33:05.293Z,5.60
2019-05-21T11:35:36.241Z,4.07
2019-05-21T11:38:05.656Z,5.27
2019-05-21T11:40:34.992Z,3.70
2019-05-21T11:43:04.310Z,4.73
2019-05-21T11:45:33.550Z,5.07
2019-05-21T11:48:03.118Z,3.60
2019-05-21T11:50:32.363Z,3.60
2019-05-21T11:53:01.669Z,4.00
2019-05-21T11:55:31.017Z,5.27
2019-05-21T11:58:00.339Z,3.20
2019-05-21T12:00:29.636Z,4.80
2019-05-21T12:02:58.915Z,3.43
2019-05-21T12:05:28.301Z,4.17
2019-05-21T12:07:57.570Z,3.00
2019-05-21T12:10:26.857Z,4.27
2019-05-21T12:12:56.186Z,2.23
2019-05-21T12:15:25.675Z,5.77
2019-05-21T12:17:54.957Z,5.30
2019-05-21T12:20:36.417Z,3.93
2019-05-21T12:22:55.169Z,3.57
2019-05-21T12:25:24.385Z,4.63
2019-05-21T12:27:53.922Z,3.90
2019-05-21T12:30:23.150Z,3.87
2019-05-21T12:32:52.503Z,4.90
2019-05-21T12:35:21.850Z,4.27
2019-05-21T12:37:51.375Z,4.33
2019-05-21T12:40:21.106Z,6.77
2019-05-21T12:42:50.302Z,3.57
2019-05-21T12:45:19.617Z,5.23
2019-05-21T12:47:50.691Z,4.30
2019-05-21T12:50:20.274Z,5.73
2019-05-21T12:52:49.496Z,3.30
2019-05-21T12:55:18.679Z,3.40
2019-05-21T12:57:48.269Z,2.87
2019-05-21T13:00:17.804Z,2.63
2019-05-21T13:02:47.440Z,3.30
2019-05-21T13:05:17.120Z,3.57
2019-05-21T13:07:46.685Z,4.37
2019-05-21T13:10:16.070Z,3.50
2019-05-21T13:12:45.367Z,4.57
2019-05-21T13:15:14.633Z,4.93
2019-05-21T13:17:43.957Z,5.80
2019-05-21T13:20:14.490Z,4.40
2019-05-21T13:22:43.817Z,4.27
2019-05-21T13:25:13.162Z,5.17
2019-05-21T13:27:42.394Z,4.13
2019-05-21T13:30:11.881Z,4.23
2019-05-21T13:32:43.761Z,3.20
2019-05-21T13:35:12.460Z,5.67
2019-05-21T13:37:42.188Z,3.20
2019-05-21T13:40:12.187Z,7.07
2019-05-21T13:42:41.517Z,4.80
2019-05-21T13:45:10.749Z,4.40
2019-05-21T13:47:40.071Z,4.23
2019-05-21T13:50:09.926Z,4.03
2019-05-21T13:52:39.272Z,3.97
2019-05-21T13:55:09.069Z,4.57
2019-05-21T13:57:38.442Z,4.97
2019-05-21T14:00:10.574Z,4.67
2019-05-21T14:02:39.963Z,5.03
2019-05-21T14:05:09.695Z,4.60
2019-05-21T14:07:39.808Z,4.30
2019-05-21T14:10:15.005Z,4.97
2019-05-21T14:12:40.670Z,8.53
2019-05-21T14:15:09.878Z,5.43
2019-05-21T14:17:39.385Z,6.17
2019-05-21T14:20:09.279Z,5.63
2019-05-21T14:22:38.606Z,6.47
2019-05-21T14:25:07.938Z,4.60
2019-05-21T14:27:44.581Z,3.63
2019-05-21T14:30:09.127Z,4.57
2019-05-21T14:32:38.724Z,3.70
2019-05-21T14:35:08.437Z,5.37
2019-05-21T14:37:38.021Z,4.13
2019-05-21T14:40:08.190Z,4.27
2019-05-21T14:42:37.444Z,4.03
2019-05-21T14:45:06.958Z,4.33
2019-05-21T14:47:36.133Z,5.13
2019-05-21T14:50:07.105Z,5.10
2019-05-21T14:52:36.473Z,4.30
2019-05-21T14:55:06.063Z,4.87
2019-05-21T14:57:35.433Z,4.63
2019-05-21T15:00:09.282Z,5.37
2019-05-21T15:02:38.885Z,6.93
2019-05-21T15:05:08.393Z,4.60
2019-05-21T15:07:37.712Z,4.00
2019-05-21T15:10:07.135Z,4.33
2019-05-21T15:12:36.312Z,4.67
2019-05-21T15:15:06.049Z,5.07
2019-05-21T15:17:35.315Z,3.97
2019-05-21T15:20:07.988Z,3.57
2019-05-21T15:22:37.219Z,2.97
2019-05-21T15:25:06.752Z,4.40
2019-05-21T15:27:35.995Z,3.10
2019-05-21T15:30:05.695Z,2.87
2019-05-21T15:32:34.921Z,4.07
2019-05-21T15:35:04.515Z,3.67
2019-05-21T15:37:33.769Z,3.47
2019-05-21T15:40:03.379Z,3.70
2019-05-21T15:42:32.953Z,3.87
2019-05-21T15:45:02.316Z,2.93
2019-05-21T15:47:31.571Z,3.67
2019-05-21T15:50:00.927Z,2.77
2019-05-21T15:52:30.566Z,3.60
2019-05-21T15:55:00.106Z,5.27
2019-05-21T15:57:29.417Z,2.60
2019-05-21T15:59:58.933Z,3.43
2019-05-21T16:02:28.223Z,3.67
2019-05-21T16:04:57.752Z,3.43
2019-05-21T16:07:27.018Z,2.87
2019-05-21T16:09:56.248Z,3.90
2019-05-21T16:12:26.135Z,6.80
2019-05-21T16:14:55.700Z,3.70
2019-05-21T16:17:25.127Z,4.37
2019-05-21T16:19:54.370Z,4.77
2019-05-21T16:22:24.179Z,3.50
2019-05-21T16:24:53.466Z,3.93
2019-05-21T16:27:22.758Z,3.93
2019-05-21T16:29:52.254Z,5.13
2019-05-21T16:32:21.851Z,4.53
2019-05-21T16:34:51.170Z,4.53
2019-05-21T16:37:21.231Z,3.20
2019-05-21T16:39:50.786Z,4.07
2019-05-21T16:42:19.989Z,5.10
2019-05-21T16:44:49.315Z,4.83
2019-05-21T16:47:18.898Z,3.37
2019-05-21T16:49:48.407Z,5.10
2019-05-21T16:52:18.370Z,4.50
2019-05-21T16:54:48.510Z,4.87
2019-05-21T16:57:19.031Z,5.10
2019-05-21T16:59:49.422Z,4.40
2019-05-21T17:02:18.743Z,5.97
2019-05-21T17:04:47.957Z,5.17
2019-05-21T17:07:17.225Z,5.97
2019-05-21T17:09:46.879Z,5.27
2019-05-21T17:12:16.394Z,5.23
2019-05-21T17:14:45.597Z,5.37
2019-05-21T17:17:15.195Z,6.30
2019-05-21T17:19:44.439Z,6.03
2019-05-21T17:22:13.669Z,5.10
2019-05-21T17:24:42.938Z,6.63
2019-05-21T17:27:12.377Z,5.67
2019-05-21T17:29:41.585Z,5.93
2019-05-21T17:32:10.847Z,5.80
2019-05-21T17:34:40.447Z,5.17
2019-05-21T17:37:09.923Z,6.67
2019-05-21T17:39:39.586Z,5.60
2019-05-21T17:42:15.620Z,6.97
2019-05-21T17:44:40.002Z,7.47
2019-05-21T17:47:09.981Z,6.37
2019-05-21T17:49:39.530Z,7.60
2019-05-21T17:52:09.649Z,8.83
2019-05-21T17:54:53.995Z,7.07
2019-05-21T17:57:10.149Z,9.30
2019-05-21T17:59:39.322Z,7.87
2019-05-21T18:02:11.635Z,7.20
2019-05-21T18:04:40.898Z,6.37
2019-05-21T18:07:12.161Z,7.57
2019-05-21T18:09:42.321Z,8.10
2019-05-21T18:12:12.319Z,7.57
2019-05-21T18:14:42.209Z,6.80
2019-05-21T18:17:16.171Z,7.07
2019-05-21T18:19:46.098Z,7.73
2019-05-21T18:22:18.360Z,9.47
2019-05-21T18:24:48.892Z,8.73
2019-05-21T18:27:18.955Z,7.77
2019-05-21T18:29:49.509Z,8.47
2019-05-21T18:32:19.902Z,9.70
2019-05-21T18:34:50.746Z,7.60
2019-05-21T18:37:21.325Z,10.20
2019-05-21T18:39:52.393Z,9.87
2019-05-21T18:42:22.834Z,8.97
2019-05-21T18:44:52.180Z,12.07
2019-05-21T18:47:21.675Z,9.93
2019-05-21T18:49:51.371Z,11.93
2019-05-21T18:52:20.813Z,9.37
2019-05-21T18:54:50.061Z,12.23
2019-05-21T18:57:19.211Z,12.77
2019-05-21T18:59:48.501Z,11.53
2019-05-21T19:02:17.751Z,13.20
2019-05-21T19:04:47.041Z,12.13
2019-05-21T19:07:16.497Z,10.37
2019-05-21T19:09:46.096Z,12.10
2019-05-21T19:12:15.312Z,12.00
2019-05-21T19:14:45.301Z,14.00
2019-05-21T19:17:14.742Z,13.50
2019-05-21T19:19:43.982Z,12.33
2019-05-21T19:22:13.221Z,12.67
2019-05-21T19:24:42.505Z,13.70
2019-05-21T19:27:11.764Z,12.83
2019-05-21T19:29:41.289Z,13.17
2019-05-21T19:32:10.886Z,18.00
2019-05-21T19:34:41.189Z,15.60
2019-05-21T19:37:10.719Z,12.43
2019-05-21T19:39:40.406Z,15.37
2019-05-21T19:42:09.966Z,14.73
2019-05-21T19:44:39.563Z,14.33
2019-05-21T19:47:09.326Z,15.47
2019-05-21T19:49:38.992Z,14.87
2019-05-21T19:52:08.568Z,16.30
2019-05-21T19:54:37.849Z,16.13
2019-05-21T19:57:07.373Z,14.93
2019-05-21T19:59:36.785Z,16.03
2019-05-21T20:02:08.468Z,14.00
2019-05-21T20:04:38.421Z,15.17
2019-05-21T20:07:09.834Z,16.47
2019-05-21T20:09:39.839Z,15.03
2019-05-21T20:12:09.806Z,14.90
2019-05-21T20:14:39.143Z,16.20
2019-05-21T20:17:12.473Z,16.43
2019-05-21T20:19:42.622Z,18.07
2019-05-21T20:22:12.354Z,22.63
2019-05-21T20:24:42.873Z,20.73
2019-05-21T20:27:12.641Z,21.17
2019-05-21T20:29:42.407Z,22.33
2019-05-21T20:32:13.693Z,19.33
2019-05-21T20:34:43.046Z,17.90
2019-05-21T20:37:15.536Z,17.73
2019-05-21T20:39:44.834Z,20.33
2019-05-21T20:42:17.924Z,18.07
2019-05-21T20:44:47.542Z,17.70
2019-05-21T20:47:18.434Z,19.23
2019-05-21T20:49:49.035Z,17.10
2019-05-21T20:52:19.181Z,17.37
2019-05-21T20:54:50.307Z,19.60
2019-05-21T20:57:20.417Z,18.37
2019-05-21T20:59:50.243Z,19.87
2019-05-21T21:02:19.449Z,18.73
2019-05-21T21:04:49.206Z,19.50
2019-05-21T21:07:18.686Z,20.03
2019-05-21T21:09:48.075Z,20.67
2019-05-21T21:12:17.596Z,18.40
2019-05-21T21:14:48.634Z,20.03
2019-05-21T21:17:19.219Z,22.27
2019-05-21T21:19:48.573Z,19.47
2019-05-21T21:22:18.193Z,20.13
2019-05-21T21:24:47.679Z,19.97
2019-05-21T21:27:16.941Z,20.20
2019-05-21T21:29:46.285Z,21.27
2019-05-21T21:32:15.726Z,21.57
2019-05-21T21:34:44.984Z,20.27
2019-05-21T21:37:14.438Z,19.90
2019-05-21T21:39:43.779Z,17.83
2019-05-21T21:42:13.417Z,19.37
2019-05-21T21:44:42.757Z,18.97
2019-05-21T21:47:12.199Z,20.30
2019-05-21T21:49:42.947Z,21.33
2019-05-21T21:52:13.778Z,20.13
2019-05-21T21:54:43.574Z,20.83
2019-05-21T21:57:12.946Z,21.07
2019-05-21T21:59:42.130Z,19.83
2019-05-21T22:02:18.571Z,20.73
2019-05-21T22:04:48.845Z,19.10
2019-05-21T22:07:18.400Z,19.07
2019-05-21T22:09:48.127Z,19.47
2019-05-21T22:12:18.270Z,20.70
2019-05-21T22:14:52.466Z,19.93
2019-05-21T22:17:22.594Z,19.93
2019-05-21T22:19:51.887Z,19.37
2019-05-21T22:22:21.313Z,18.97
2019-05-21T22:24:50.686Z,17.33
2019-05-21T22:27:20.233Z,17.63
2019-05-21T22:29:49.802Z,18.27
2019-05-21T22:32:19.245Z,16.83
2019-05-21T22:34:48.778Z,16.10
2019-05-21T22:37:22.123Z,17.10
2019-05-21T22:39:51.966Z,17.70
2019-05-21T22:42:23.130Z,16.50
2019-05-21T22:45:07.209Z,18.43
2019-05-21T22:47:25.325Z,21.17
2019-05-21T22:49:54.883Z,19.07
2019-05-21T22:52:24.239Z,19.17
2019-05-21T22:54:53.583Z,19.63
2019-05-21T22:57:25.970Z,19.30
2019-05-21T22:59:54.026Z,19.37
2019-05-21T23:02:27.841Z,18.67
2019-05-21T23:04:57.107Z,19.23
2019-05-21T23:07:26.362Z,19.90
2019-05-21T23:09:56.139Z,20.67
2019-05-21T23:12:25.658Z,20.37
2019-05-21T23:14:55.236Z,20.83
2019-05-21T23:17:24.560Z,20.77
2019-05-21T23:19:55.041Z,21.47
2019-05-21T23:22:26.353Z,20.73
2019-05-21T23:24:55.836Z,21.57
2019-05-21T23:27:25.283Z,22.57
2019-05-21T23:29:54.519Z,23.20
2019-05-21T23:32:24.061Z,21.47
2019-05-21T23:34:54.100Z,22.23
2019-05-21T23:37:25.613Z,23.00
2019-05-21T23:39:55.748Z,22.13
2019-05-21T23:42:30.051Z,24.40
2019-05-21T23:44:56.934Z,24.70
2019-05-21T23:47:27.150Z,24.00
2019-05-21T23:49:56.330Z,22.27
2019-05-21T23:52:25.961Z,23.70
2019-05-21T23:54:55.294Z,22.87
2019-05-21T23:57:32.372Z,24.80
